x

Yucatan Basin - 120 Nm Ese Of Cozumel, Mx (42056) Wave Buoy

3:50 - Tue 5th May 2015 All times are CDT. -5 hours from GMT.

  • Sig Wave height 6.2ft
  • Swell Direction
  • Peak Period 8s
  • Average Period 6s
  • Wind
    16mph, 20mph gusts
  • Sea Temp 82°f
  • Luft Temp 80°f
  • Sea Pressure 1013.7mb
  •  Yucatan Basin - 120 Nm Ese Of Cozumel, Mx
  •  Yucatan Basin - 120 Nm Ese Of Cozumel, Mx

More Historic Weather Station data

Upgrade to MSW Pro to gain access to the past 30 days of data for over 8000 Wavebouys and Weather Stations around the globe.

Join Pro

Comparision Forecast

View Surf forecast
   
Di 05/05 3:50 6ft 8s 6s 16 20 mph 1013.7mb 82f 80f
2:50 6.5ft 8s 6s 20 25 mph 1013.4mb 82f 79f
1:50 5.5ft 8s 5s 25 27 mph 1013.4mb 82f 80f
12:50 6ft 8s 5s 18 22 mph 1013.8mb 82f 79f
Mo 05/04 11:50 5ft 7s 5s 18 22 mph 1015.2mb 82f 78f
10:50 5ft 8s 5s 20 25 mph 1015.8mb 82f 78f
9:50 4.5ft 8s 5s 18 20 mph 1015.8mb 82f 76f
8:50 4ft 7s 5s 18 22 mph 1015.6mb 82f 76f
7:50 4.5ft 8s 5s 13 16 mph 1015mb 82f 78f
6:50 4ft 8s 5s 13 18 mph 1013.8mb 82f 79f
5:50 4ft 7s 5s 16 20 mph 1013.8mb 82f 77f
4:50 4ft 7s 5s 13 16 mph 1013.2mb 82f 75f
3:50 4ft 8s 5s 18 20 mph 1014mb 82f 77f
2:50 3.5ft 8s 5s 16 18 mph 1013.5mb 82f 79f
1:50 4ft 7s 6s 7 9 mph 1014.3mb 82f 81f
12:50 3.5ft 8s 5s 11 16 mph 1014.9mb 82f 80f
11:50 3.5ft 8s 5s 9 11 mph 1014.7mb 82f 81f
10:50 4.5ft 8s 6s 11 13 mph 1015mb 82f 80f
9:50 4ft 8s 5s 9 11 mph 1015.2mb 82f 81f
8:50 4ft 7s 5s 13
mph
1014.7mb 82f 80f
7:50 4.5ft 7s 6s 11 13 mph 1014.4mb 82f 80f
6:50 4.5ft 7s 6s 13 16 mph 1013.4mb 82f 80f
5:50 5ft 7s 6s 13 16 mph 1012.8mb 82f 80f
4:50 4.5ft 8s 5s 13 16 mph 1012.5mb 82f 80f
3:50 5ft 8s 5s 13 16 mph 1012.4mb 82f 80f
2:50 4.5ft 6s 5s 13 16 mph 1013mb 82f 80f
1:50 5.5ft 7s 5s 16 20 mph 1013.1mb 82f 80f
12:50 6ft 7s 5s 13 16 mph 1013.9mb 82f 80f
So 05/03 11:50 5.5ft 7s 5s 16 20 mph 1014.3mb 82f 80f
10:50 5.5ft 7s 5s 18 22 mph 1014.4mb 82f 80f
9:50 5ft 6s 5s 22 27 mph 1013.9mb 82f 80f
8:50 4.5ft 6s  -  22 27 mph 1013.5mb 82f 80f
7:50 4.5ft 6s 4s 22 27 mph 1013.2mb 82f 80f
6:50 3.5ft 5s 4s 20 22 mph 1012.8mb 82f 80f
5:50 3.5ft 5s 4s 18 22 mph 1012.3mb 82f 81f
4:50 3.5ft 5s 4s 16 18 mph 1012.5mb 82f 81f
3:50 3.5ft 5s 5s 13 16 mph 1012.7mb 82f 81f
2:50 3ft 9s 5s 9 11 mph 1013.3mb 82f 81f
1:50 3ft 5s 5s 11 13 mph 1013.5mb 82f 81f
12:50 3ft 5s 4s 11 13 mph 1014.2mb 82f 81f
11:50 3ft 5s 4s 11 13 mph 1014.7mb 82f 81f
10:50 3.5ft 5s 5s 11 13 mph 1014.9mb 82f 81f
9:50 3.5ft 6s 4s 13
mph
1014.9mb 81f 81f
8:50 3ft 6s 4s 13 16 mph 1014.5mb 81f 80f
7:50 3.5ft 5s 4s 13 18 mph 1013.9mb 81f 80f
6:50 3ft 6s 4s 13 16 mph 1013.4mb 81f 80f
5:50 3ft 9s 5s 13 18 mph 1013mb 81f 80f
4:50 3ft 6s 5s 13 16 mph 1012.6mb 81f 79f
3:50 2.5ft 7s 5s 13 16 mph 1012.5mb 81f 79f
2:50 2.5ft 6s 5s 13 16 mph 1012.9mb 82f 80f
1:50 2.5ft 6s 4s 13 16 mph 1013.2mb 82f 80f
12:50 3ft 6s 5s 11 13 mph 1014mb 82f 80f
Sa 05/02 11:50 3.5ft 6s 5s 13 16 mph 1014.2mb 82f 80f
10:50 3.5ft 7s 5s 13 18 mph 1014.4mb 82f 80f
9:50 3.5ft 6s 5s 13 18 mph 1013.8mb 82f 80f
8:50 3.5ft 6s 5s 13 18 mph 1013.5mb 82f 80f
7:50 3.5ft 6s 4s 13 16 mph 1013.2mb 82f 80f
6:50 3.5ft 5s 4s 16 18 mph 1012.8mb 82f 80f
4:50 3.5ft 4s 4s 13 18 mph 1012.1mb 82f 80f
3:50 3.5ft 6s 4s 16 20 mph 1012.2mb 82f 79f
2:50 3.5ft 6s 4s 16 20 mph 1013.1mb 82f 80f
1:50 4ft 5s 4s 18 20 mph 1013.6mb 82f 80f
12:50 4ft 5s 4s 20 22 mph 1014.2mb 82f 80f
11:50 4ft 5s 4s 18 22 mph 1014.6mb 82f 80f
10:50 4ft 6s 4s 18 22 mph 1014.6mb 82f 80f
9:50 4ft 5s 4s 20 22 mph 1014.3mb 82f 80f
8:50 3.5ft 5s 4s 20 22 mph 1013.7mb 82f 80f
7:50 3.5ft 5s 4s 16 18 mph 1013.5mb 82f 81f
6:50 3.5ft 7s 4s 18 20 mph 1012.7mb 82f 81f
5:50 3ft 9s 5s 16 18 mph 1012.1mb 82f 81f
4:50 3ft 7s 5s 13 16 mph 1012.1mb 82f 80f
3:50 2.5ft 8s 5s 11 13 mph 1011.9mb 82f 81f
2:50 3ft 9s 5s 11 13 mph 1012.3mb 82f 81f
12:50 3ft 8s 5s 13 16 mph 1013.8mb 82f 81f
Fr 05/01 11:50 3ft 8s 5s 13 16 mph 1014.3mb 82f 81f
10:50 3ft 7s 5s 13 16 mph 1014.4mb 82f 81f
9:50 3ft 9s 5s 13 16 mph 1013.9mb 82f 81f
8:50 2.5ft 8s 5s 13 18 mph 1013.3mb 82f 81f
7:50 3ft 8s 5s 11 16 mph 1012.5mb 82f 80f
6:50 2.5ft 8s 5s 11 16 mph 1012mb 82f 80f
5:50 3ft 7s 6s 13 16 mph 1011.4mb 83f 80f
4:50 3.5ft 9s 6s 11 13 mph 1011mb 83f 79f
3:50 3.5ft 8s 6s 11 13 mph 1011.4mb 83f 79f
2:50 3.5ft 9s 6s 7 9 mph 1012.2mb 83f 79f
1:50 3.5ft 8s 5s 9 11 mph 1012.9mb 83f 79f
12:50 3.5ft 8s 5s 9 13 mph 1013.8mb 82f 78f
11:50 3.5ft 9s 5s 11 13 mph 1014.1mb 82f 78f
10:50 4ft 9s 5s 11 13 mph 1014.4mb 82f 77f